Redwood City, CA

9:33 AM PDT on July 02, 2015 (GMT -0700)
Redwood Shores - Baltic Circle | | Change Station
CLOSE
Current Station
Personal Weather Station
Location: Redwood City, CA
Elevation: -10 ft
Nearby Weather Stations

Elev -10 ft 37.54 °N, 122.24 °W | Updated 1 minute ago

Mostly Cloudy
Mostly Cloudy
67.2 °F
Feels Like 67.2 °F
N
0.0
Wind Variable Wind from WNW
Gusts 1.0 mph

Today
High -- | Low -- °F
--% Chance of Precip.
Yesterday
High -- | Low -- °F
Precip. -- in
5:51 AM 8:34 PM
Full, 100% visible
Pressure 29.98 in
Visibility 10.0 miles
Clouds Few 800 ft
Scattered Clouds 15000 ft
Mostly Cloudy 20000 ft
Dew Point 61 °F
Humidity 81%
Rainfall 0.00 in
Snow Depth Not available.
UV 2 out of 12
Pollen 4.80 out of 12
Air Quality Not available.
Flu Activity Not available.
METAR KSQL 021547Z 00000KT 10SM FEW008 SCT150 BKN200 18/15 A2998

More Conditions Fewer Conditions

Pressure 29.98 in
Visibility 10.0 miles
Clouds Few 800 ft
Scattered Clouds 15000 ft
Mostly Cloudy 20000 ft
Dew Point 61 °F
Humidity 81%
Rainfall 0.00 in
Snow Depth Not available.
UV 2 out of 12
Pollen 4.80 out of 12
Air Quality Not available.
Flu Activity Not available.
METAR KSQL 021547Z 00000KT 10SM FEW008 SCT150 BKN200 18/15 A2998

More Conditions Fewer Conditions

10-Day Weather Forecast

×

Almanac

Astronomy

Jul. 02, 2015 Rise Set
Actual Time
Civil Twilight
Nautical Twilight
Astronomical Twilight
Moon
Length of Visible Light
Length of Day
Tomorrow will be .
, % of the Moon is Illuminated

Today's Extremes

State Highs State Lows

Community

WunderPhotos

Upload Photos

1,834,496 photos uploaded!

WunderBlogs® & News

Nearby

Air Quality

  Air Quality AQ Index Pollutant
Not available.

Snow Depth

Station Depth Elevation

Earthquake Activity

City Distance Mag. Time & Date
Minimum magnitude displayed is 2.5.

Coastal Water Temperatures

Place Temperature

Stations

Nearby Weather Stations

Station Location Temp. Windchill Dew Point Humidity Wind Precip. Elev Updated Type